Time;durP1;ratioP1;P1;durP2;ratioP2;P2;SDS_P1;SDS_P2;PMS_P1;PMS_P2;Temp;Humidity;BMP_temperature;BMP_pressure;BME280_temperature;BME280_humidity;BME280_pressure;Samples;Min_cycle;Max_cycle;Signal;HPM_P1;HPM_P2
2023/10/01 00:00:15;;;;;;;11.80;4.00;;;15.10;99.90;;;;;;4955236;28;20082;-74
2023/10/01 00:02:41;;;;;;;11.02;4.18;;;15.00;99.90;;;;;;4956268;28;20133;-74
2023/10/01 00:05:09;;;;;;;11.95;4.35;;;15.10;99.90;;;;;;4973232;28;20102;-74
2023/10/01 00:07:37;;;;;;;14.20;4.68;;;15.10;99.90;;;;;;4975416;28;20038;-74
2023/10/01 00:10:13;;;;;;;12.00;4.53;;;15.00;99.90;;;;;;4947570;29;20051;-74
2023/10/01 00:12:40;;;;;;;11.15;4.00;;;15.00;99.90;;;;;;4941101;29;20047;-74
2023/10/01 00:15:10;;;;;;;8.57;4.60;;;15.10;99.90;;;;;;4939845;29;20057;-74
2023/10/01 00:17:37;;;;;;;11.75;4.80;;;15.00;99.90;;;;;;4941782;28;20078;-75
2023/10/01 00:20:09;;;;;;;11.00;4.85;;;15.00;99.90;;;;;;4955236;28;20050;-73
2023/10/01 00:22:37;;;;;;;12.90;5.43;;;15.00;99.90;;;;;;4959124;28;20047;-73
2023/10/01 00:25:05;;;;;;;15.85;5.30;;;15.10;99.90;;;;;;4959380;28;20085;-73
2023/10/01 00:27:30;;;;;;;12.40;4.88;;;15.10;99.90;;;;;;4976302;28;20054;-73
2023/10/01 00:29:56;;;;;;;10.93;4.75;;;15.10;99.90;;;;;;4975821;28;20387;-72
2023/10/01 00:32:22;;;;;;;10.75;4.35;;;15.10;99.90;;;;;;4955615;29;20079;-73
2023/10/01 00:34:48;;;;;;;12.05;4.85;;;15.10;99.90;;;;;;4939170;29;20073;-73
2023/10/01 00:37:14;;;;;;;16.70;5.47;;;15.10;99.90;;;;;;4940333;29;20138;-72
2023/10/01 00:39:39;;;;;;;11.70;4.93;;;15.20;99.90;;;;;;4945002;28;20051;-72
2023/10/01 00:42:06;;;;;;;12.35;5.03;;;15.20;99.90;;;;;;4975822;28;20043;-73
2023/10/01 00:44:34;;;;;;;10.70;5.40;;;15.20;99.90;;;;;;4959337;28;20101;-72
2023/10/01 00:47:04;;;;;;;11.77;5.20;;;15.20;99.90;;;;;;4976569;28;20042;-73
2023/10/01 00:49:36;;;;;;;14.32;5.47;;;15.20;99.90;;;;;;4951334;29;20050;-71
2023/10/01 00:52:01;;;;;;;13.93;5.55;;;15.20;99.90;;;;;;4939858;29;20051;-72
2023/10/01 00:54:28;;;;;;;15.90;6.05;;;15.20;99.90;;;;;;4939952;29;20051;-72
2023/10/01 00:56:53;;;;;;;13.63;5.32;;;15.20;99.90;;;;;;4938817;29;20126;-72
2023/10/01 00:59:22;;;;;;;15.77;5.85;;;15.30;99.90;;;;;;4957077;29;20138;-72
2023/10/01 01:01:47;;;;;;;12.93;5.38;;;15.30;99.90;;;;;;4937567;29;20134;-73
2023/10/01 01:04:19;;;;;;;15.25;5.63;;;15.30;99.90;;;;;;4958423;28;20042;-73
2023/10/01 01:06:48;;;;;;;12.95;5.57;;;15.30;99.90;;;;;;4957550;28;20063;-73
2023/10/01 01:09:15;;;;;;;15.73;6.30;;;15.30;99.90;;;;;;4957881;28;20563;-72
2023/10/01 01:11:40;;;;;;;14.23;6.10;;;15.30;99.90;;;;;;4957413;28;20077;-73
2023/10/01 01:14:07;;;;;;;11.85;5.40;;;15.30;99.90;;;;;;4958202;28;20054;-73
2023/10/01 01:16:34;;;;;;;9.82;5.18;;;15.20;99.90;;;;;;4958425;28;20054;-73
2023/10/01 01:19:00;;;;;;;12.90;5.95;;;15.30;99.90;;;;;;4988232;28;20395;-72
2023/10/01 01:21:26;;;;;;;13.02;5.35;;;15.30;99.90;;;;;;4958616;28;20047;-72
2023/10/01 01:23:53;;;;;;;10.13;5.85;;;15.40;99.90;;;;;;4957660;28;20490;-73
2023/10/01 01:26:22;;;;;;;16.58;6.85;;;15.30;99.90;;;;;;4958681;28;20050;-73
2023/10/01 01:28:48;;;;;;;14.18;7.05;;;15.20;99.90;;;;;;4962179;28;20129;-73
2023/10/01 01:31:14;;;;;;;11.82;6.32;;;15.20;99.90;;;;;;4977139;28;20102;-73
2023/10/01 01:33:56;;;;;;;13.63;6.38;;;15.20;99.90;;;;;;4978189;28;20038;-73
2023/10/01 01:36:22;;;;;;;16.95;7.03;;;15.20;99.90;;;;;;4977735;28;20038;-73
2023/10/01 01:39:32;;;;;;;15.98;6.43;;;15.20;99.90;;;;;;4976591;28;20046;-73
2023/10/01 01:41:57;;;;;;;17.42;7.10;;;15.10;99.90;;;;;;4899985;29;20556;-73
2023/10/01 01:44:23;;;;;;;13.15;5.90;;;15.20;99.90;;;;;;4966500;28;20085;-73
2023/10/01 01:46:49;;;;;;;14.35;5.78;;;15.20;99.90;;;;;;4972837;28;20081;-73
2023/10/01 01:49:19;;;;;;;13.07;5.95;;;15.20;99.90;;;;;;4977469;28;20096;-73
2023/10/01 01:51:59;;;;;;;15.02;6.95;;;15.20;99.90;;;;;;4977963;28;20046;-73
2023/10/01 01:54:31;;;;;;;17.42;6.57;;;15.10;99.90;;;;;;4977676;28;20050;-73
2023/10/01 01:56:58;;;;;;;17.23;6.90;;;15.10;99.90;;;;;;4961248;28;20038;-73
2023/10/01 01:59:27;;;;;;;13.48;6.57;;;15.10;99.90;;;;;;4957406;28;20545;-73
2023/10/01 02:01:56;;;;;;;18.80;6.90;;;15.10;99.90;;;;;;4973851;28;20051;-73
2023/10/01 02:04:23;;;;;;;13.80;6.85;;;15.10;99.90;;;;;;4974001;28;20630;-73
2023/10/01 02:06:52;;;;;;;17.33;7.97;;;15.20;99.90;;;;;;4973440;28;20129;-73
2023/10/01 02:09:20;;;;;;;16.38;7.43;;;15.10;99.90;;;;;;4957680;28;20518;-73
2023/10/01 02:11:49;;;;;;;16.92;7.53;;;15.10;99.90;;;;;;4958950;28;20062;-73
2023/10/01 02:14:31;;;;;;;15.55;7.55;;;15.10;99.90;;;;;;4957315;28;20053;-73
2023/10/01 02:17:16;;;;;;;13.85;7.55;;;15.10;99.90;;;;;;4973608;28;20047;-73
2023/10/01 02:19:49;;;;;;;12.60;6.95;;;15.10;99.90;;;;;;4938679;29;20074;-73
2023/10/01 02:22:18;;;;;;;13.60;7.53;;;15.20;99.90;;;;;;4937921;29;20047;-73
2023/10/01 02:27:11;;;;;;;13.57;7.30;;;15.20;99.90;;;;;;4937455;29;20159;-73
2023/10/01 02:30:09;;;;;;;14.85;7.78;;;15.20;99.90;;;;;;4937711;29;20478;-73
2023/10/01 02:32:32;;;;;;;17.08;7.82;;;15.20;99.90;;;;;;4938116;29;20479;-73
2023/10/01 02:35:03;;;;;;;15.43;8.20;;;15.20;99.90;;;;;;4937187;29;20063;-73
2023/10/01 02:37:35;;;;;;;18.65;8.43;;;15.20;99.90;;;;;;4938471;29;20182;-73
2023/10/01 02:40:14;;;;;;;17.60;8.20;;;15.10;99.90;;;;;;4938162;29;20070;-73
2023/10/01 02:42:43;;;;;;;18.15;8.50;;;15.10;99.90;;;;;;4937065;29;20052;-73
2023/10/01 02:45:30;;;;;;;17.70;8.80;;;15.10;99.90;;;;;;4955276;28;20043;-73
2023/10/01 02:48:13;;;;;;;14.50;7.70;;;15.10;99.90;;;;;;4956189;28;20057;-73
2023/10/01 02:50:40;;;;;;;17.25;8.50;;;15.20;99.90;;;;;;4957084;28;20055;-73
2023/10/01 02:53:06;;;;;;;16.20;8.70;;;15.10;99.90;;;;;;4957084;28;20063;-73
2023/10/01 02:55:31;;;;;;;18.38;9.57;;;15.10;99.90;;;;;;4956297;28;20038;-73
2023/10/01 02:58:03;;;;;;;16.48;9.13;;;15.10;99.90;;;;;;4956772;28;20047;-73
2023/10/01 03:00:31;;;;;;;16.90;8.93;;;15.20;99.90;;;;;;4957065;28;20047;-73
2023/10/01 03:02:59;;;;;;;15.85;9.68;;;15.20;99.90;;;;;;4956340;28;20141;-73
2023/10/01 03:05:36;;;;;;;18.60;9.80;;;15.10;99.90;;;;;;4955365;28;20133;-73
2023/10/01 03:08:04;;;;;;;15.73;8.85;;;15.10;99.90;;;;;;4937418;29;20070;-73
2023/10/01 03:10:31;;;;;;;18.92;9.27;;;15.10;99.90;;;;;;4937081;29;20098;-73
2023/10/01 03:13:14;;;;;;;12.98;8.40;;;15.20;99.90;;;;;;4954600;29;20111;-73
2023/10/01 03:15:43;;;;;;;16.60;8.48;;;15.20;99.90;;;;;;4937986;29;20054;-73
2023/10/01 03:18:21;;;;;;;16.52;8.73;;;15.10;99.90;;;;;;4936491;29;20066;-73
2023/10/01 03:28:27;;;;;;;15.63;8.63;;;15.10;99.90;;;;;;4956650;28;20234;-73
2023/10/01 03:31:01;;;;;;;16.67;8.63;;;15.10;99.90;;;;;;4955365;28;20074;-73
2023/10/01 03:33:30;;;;;;;16.17;9.05;;;15.10;99.90;;;;;;4956825;28;20043;-73
2023/10/01 03:35:57;;;;;;;17.60;8.20;;;15.10;99.90;;;;;;4955937;28;20062;-73
2023/10/01 03:38:27;;;;;;;14.20;7.90;;;15.10;99.90;;;;;;4955873;28;20559;-73
2023/10/01 03:41:00;;;;;;;13.80;7.93;;;15.20;99.90;;;;;;4955676;28;20041;-72
2023/10/01 03:43:32;;;;;;;13.27;7.43;;;15.30;99.90;;;;;;4956596;28;20057;-72
2023/10/01 03:46:14;;;;;;;17.20;8.02;;;15.30;99.90;;;;;;4954865;28;20052;-73
2023/10/01 03:49:00;;;;;;;16.38;7.60;;;15.30;99.90;;;;;;4956801;28;20434;-73
2023/10/01 03:51:28;;;;;;;15.73;7.63;;;15.30;99.90;;;;;;4954497;28;20443;-73
2023/10/01 03:54:06;;;;;;;13.82;6.60;;;15.30;99.90;;;;;;4955656;28;20055;-73
2023/10/01 03:56:33;;;;;;;17.60;6.50;;;15.30;99.90;;;;;;4956617;28;20051;-73
2023/10/01 03:59:00;;;;;;;14.05;6.03;;;15.30;99.90;;;;;;4955170;28;20050;-73
2023/10/01 04:01:26;;;;;;;12.05;5.93;;;15.40;99.90;;;;;;4955975;28;20447;-73
2023/10/01 04:03:52;;;;;;;20.13;6.50;;;15.40;99.90;;;;;;4956132;28;20050;-73
2023/10/01 04:06:21;;;;;;;13.55;6.20;;;15.40;99.90;;;;;;4955587;28;20470;-73
2023/10/01 04:08:47;;;;;;;16.45;6.50;;;15.30;99.90;;;;;;4956049;28;20051;-73
2023/10/01 04:11:15;;;;;;;17.88;6.82;;;15.40;99.90;;;;;;4955493;28;20138;-73
2023/10/01 04:13:41;;;;;;;21.50;7.13;;;15.40;99.90;;;;;;4955554;28;20053;-72
2023/10/01 04:16:15;;;;;;;16.85;7.47;;;15.40;99.90;;;;;;4955265;28;20067;-73
2023/10/01 04:18:42;;;;;;;20.13;7.78;;;15.40;99.90;;;;;;4965210;28;20569;-73
2023/10/01 04:23:40;;;;;;;16.50;6.63;;;15.40;99.90;;;;;;4972572;28;20131;-72
2023/10/01 04:26:07;;;;;;;17.65;7.32;;;15.40;99.90;;;;;;4973175;28;20093;-72
2023/10/01 04:28:37;;;;;;;17.67;7.53;;;15.40;99.90;;;;;;4956908;28;20081;-73
2023/10/01 04:31:09;;;;;;;16.85;7.30;;;15.40;99.90;;;;;;4952626;29;20447;-72
2023/10/01 04:33:37;;;;;;;14.20;7.22;;;15.40;99.90;;;;;;4953268;29;20055;-73
2023/10/01 04:36:10;;;;;;;17.52;7.57;;;15.40;99.90;;;;;;4935827;29;20051;-72
2023/10/01 04:38:36;;;;;;;14.38;7.82;;;15.40;99.90;;;;;;4952648;29;20055;-72
2023/10/01 04:41:07;;;;;;;16.80;7.68;;;15.30;99.90;;;;;;4951812;29;20039;-72
2023/10/01 04:43:35;;;;;;;18.73;7.70;;;15.40;99.90;;;;;;4971453;28;20034;-72
2023/10/01 04:46:08;;;;;;;19.48;8.63;;;15.40;99.90;;;;;;4955565;28;20102;-72
2023/10/01 04:48:36;;;;;;;24.27;10.30;;;15.20;99.90;;;;;;4971441;28;20127;-72
2023/10/01 04:51:07;;;;;;;17.73;7.72;;;15.20;99.90;;;;;;4971307;28;20494;-72
2023/10/01 04:53:33;;;;;;;13.80;7.88;;;15.20;99.90;;;;;;4965911;28;20070;-72
2023/10/01 04:56:05;;;;;;;16.17;8.18;;;15.30;99.90;;;;;;4954690;28;20074;-72
2023/10/01 04:58:36;;;;;;;21.23;8.93;;;15.20;99.90;;;;;;4975173;28;20046;-72
2023/10/01 05:01:05;;;;;;;17.70;8.95;;;15.20;99.90;;;;;;4974506;28;20046;-72
2023/10/01 05:03:40;;;;;;;17.92;8.27;;;15.10;99.90;;;;;;4974400;28;20071;-72
2023/10/01 05:06:14;;;;;;;19.40;8.65;;;15.20;99.90;;;;;;4975166;28;20058;-72
2023/10/01 05:08:55;;;;;;;16.85;8.77;;;15.10;99.90;;;;;;4974943;28;20042;-72
2023/10/01 05:11:21;;;;;;;19.05;9.10;;;15.10;99.90;;;;;;4972942;28;20054;-72
2023/10/01 05:13:48;;;;;;;22.95;9.13;;;15.10;99.90;;;;;;4956762;28;20432;-72
2023/10/01 05:16:18;;;;;;;19.38;9.73;;;15.10;99.90;;;;;;4939119;29;20051;-72
2023/10/01 05:18:45;;;;;;;18.45;8.70;;;15.10;99.90;;;;;;4939133;29;20495;-72
2023/10/01 05:21:12;;;;;;;18.58;9.20;;;15.20;99.90;;;;;;4955300;29;20069;-72
2023/10/01 05:23:42;;;;;;;21.73;9.82;;;15.20;99.90;;;;;;4938873;29;20047;-72
2023/10/01 05:26:10;;;;;;;22.17;9.70;;;15.10;99.90;;;;;;4939248;29;20078;-72
2023/10/01 05:28:39;;;;;;;16.30;8.93;;;15.00;99.90;;;;;;4939693;29;20047;-72
2023/10/01 05:31:14;;;;;;;19.73;10.38;;;15.10;99.90;;;;;;4938335;29;20054;-72
2023/10/01 05:33:46;;;;;;;18.38;9.40;;;15.00;99.90;;;;;;4939552;29;20047;-72
2023/10/01 05:36:16;;;;;;;20.75;10.13;;;15.10;99.90;;;;;;4956601;28;20180;-71
2023/10/01 05:38:44;;;;;;;17.98;9.07;;;15.00;99.90;;;;;;4955450;28;20054;-72
2023/10/01 05:41:13;;;;;;;20.45;10.02;;;15.10;99.90;;;;;;4958027;28;20126;-72
2023/10/01 05:43:50;;;;;;;19.98;10.40;;;15.10;99.90;;;;;;4950798;28;20038;-72
2023/10/01 05:46:22;;;;;;;20.42;9.63;;;15.00;99.90;;;;;;4957688;28;20133;-71
2023/10/01 05:48:49;;;;;;;20.50;10.52;;;15.00;99.90;;;;;;4957881;28;20047;-72
2023/10/01 05:51:18;;;;;;;24.75;10.75;;;15.00;99.90;;;;;;4957397;28;20055;-72
2023/10/01 05:53:48;;;;;;;19.75;10.32;;;15.00;99.90;;;;;;4944089;29;20050;-72
2023/10/01 05:56:20;;;;;;;24.98;10.27;;;15.00;99.90;;;;;;4939077;29;20039;-71
2023/10/01 05:58:45;;;;;;;20.80;11.05;;;15.00;99.90;;;;;;4938046;29;20047;-71
2023/10/01 06:01:14;;;;;;;18.88;9.88;;;14.90;99.90;;;;;;4957064;28;20051;-71
2023/10/01 06:03:41;;;;;;;18.40;9.88;;;15.00;99.90;;;;;;4938605;28;20054;-72
2023/10/01 06:06:14;;;;;;;22.73;10.35;;;15.00;99.90;;;;;;4971960;28;20437;-72
2023/10/01 06:08:49;;;;;;;20.75;9.95;;;15.00;99.90;;;;;;4951137;28;20100;-73
2023/10/01 06:11:16;;;;;;;21.38;9.05;;;14.90;99.90;;;;;;4961252;28;20098;-70
2023/10/01 06:13:54;;;;;;;20.15;8.75;;;15.00;99.90;;;;;;4954047;28;20403;-71
2023/10/01 06:16:25;;;;;;;22.60;9.00;;;15.00;99.90;;;;;;4955319;28;20114;-72
2023/10/01 06:18:58;;;;;;;19.98;9.25;;;15.00;99.90;;;;;;4954747;28;20055;-72
2023/10/01 06:21:26;;;;;;;22.50;9.23;;;15.10;99.90;;;;;;4954741;28;20039;-72
2023/10/01 06:23:53;;;;;;;20.23;8.40;;;15.10;99.90;;;;;;4954922;28;20068;-73
2023/10/01 06:26:29;;;;;;;17.98;9.30;;;15.10;99.90;;;;;;4954941;28;20054;-71
2023/10/01 06:28:56;;;;;;;18.88;8.40;;;15.10;99.90;;;;;;4953320;28;20487;-71
2023/10/01 06:31:23;;;;;;;18.48;7.53;;;15.20;99.90;;;;;;4955198;28;20063;-71
2023/10/01 06:33:53;;;;;;;15.65;7.85;;;15.10;99.90;;;;;;4960619;28;20046;-72
2023/10/01 06:36:23;;;;;;;20.60;8.80;;;15.10;99.90;;;;;;4977831;28;20051;-72
2023/10/01 06:38:53;;;;;;;17.98;7.53;;;15.00;99.90;;;;;;4958006;28;20050;-72
2023/10/01 06:41:25;;;;;;;18.73;9.10;;;15.10;99.90;;;;;;4955327;28;20065;-73
2023/10/01 06:43:56;;;;;;;22.00;7.93;;;15.10;99.90;;;;;;4973060;28;20073;-73
2023/10/01 06:46:28;;;;;;;13.63;6.90;;;15.10;99.90;;;;;;4956647;28;20074;-73
2023/10/01 06:48:58;;;;;;;19.48;7.60;;;15.00;99.90;;;;;;4955602;28;20034;-73
2023/10/01 06:51:37;;;;;;;21.70;8.45;;;15.00;99.90;;;;;;4952923;28;20097;-72
2023/10/01 06:54:05;;;;;;;19.35;7.45;;;15.00;99.90;;;;;;4956475;28;20069;-73
2023/10/01 06:56:34;;;;;;;17.00;7.97;;;15.00;99.90;;;;;;4955024;28;20046;-72
2023/10/01 07:01:46;;;;;;;18.25;7.28;;;15.10;99.90;;;;;;4972838;28;20094;-73
2023/10/01 07:07:20;;;;;;;16.15;6.88;;;15.10;99.90;;;;;;4951184;28;20105;-73
2023/10/01 07:09:46;;;;;;;18.77;7.60;;;15.20;99.90;;;;;;4954127;28;20502;-72
2023/10/01 07:12:12;;;;;;;16.00;6.90;;;15.20;99.90;;;;;;4973036;28;20503;-72
2023/10/01 07:14:44;;;;;;;17.17;7.18;;;15.20;99.90;;;;;;4956026;28;20447;-72
2023/10/01 07:17:14;;;;;;;15.10;7.35;;;15.20;99.90;;;;;;4971888;28;20130;-72
2023/10/01 07:19:45;;;;;;;18.80;7.50;;;15.30;99.90;;;;;;4955873;28;20038;-72
2023/10/01 07:22:13;;;;;;;15.45;6.43;;;15.30;99.90;;;;;;4973114;28;20046;-73
2023/10/01 07:24:40;;;;;;;21.33;6.53;;;15.40;99.90;;;;;;4955414;28;20050;-72
2023/10/01 07:27:12;;;;;;;19.88;7.45;;;15.40;99.90;;;;;;4955979;28;20069;-73
2023/10/01 07:29:43;;;;;;;17.27;6.93;;;15.50;99.90;;;;;;4955321;28;20089;-72
2023/10/01 07:32:15;;;;;;;18.77;7.40;;;15.60;99.90;;;;;;4972739;28;20059;-72
2023/10/01 07:34:48;;;;;;;18.40;7.22;;;15.80;99.90;;;;;;4973432;28;20045;-73
2023/10/01 07:37:24;;;;;;;15.70;6.72;;;15.60;99.90;;;;;;4954926;28;20529;-72
2023/10/01 07:39:52;;;;;;;;;;;15.50;99.90;;;;;;4955773;28;20043;-72
2023/10/01 07:42:18;;;;;;;13.88;6.45;;;15.50;99.90;;;;;;4955471;28;19926;-71
2023/10/01 07:44:45;;;;;;;16.10;6.57;;;15.50;99.90;;;;;;4954876;28;20060;-72
2023/10/01 07:47:28;;;;;;;15.05;6.75;;;15.50;99.90;;;;;;4969508;28;20436;-72
2023/10/01 07:49:57;;;;;;;14.10;6.25;;;15.60;99.90;;;;;;4972464;28;20047;-73
2023/10/01 07:52:23;;;;;;;17.42;6.85;;;15.80;99.90;;;;;;4941310;29;20051;-73
2023/10/01 07:54:49;;;;;;;17.13;6.75;;;15.80;99.90;;;;;;4936690;29;20135;-74
2023/10/01 07:57:27;;;;;;;15.27;7.22;;;15.90;99.90;;;;;;4954485;29;20058;-74
2023/10/01 08:03:56;;;;;;;18.75;7.40;;;15.90;99.90;;;;;;5152893;27;20400;-75
2023/10/01 08:06:30;;;;;;;16.65;6.28;;;16.10;99.90;;;;;;5152147;27;20070;-74
2023/10/01 08:09:00;;;;;;;14.15;6.40;;;16.30;99.90;;;;;;5153236;27;20399;-73
2023/10/01 08:14:11;;;;;;;13.88;7.25;;;16.70;99.90;;;;;;5171714;27;20133;-72
2023/10/01 08:17:10;;;;;;;17.25;7.35;;;17.10;99.90;;;;;;5153167;27;20042;-75
2023/10/01 08:19:44;;;;;;;17.85;7.45;;;17.40;99.90;;;;;;5148632;27;20046;-88
2023/10/01 08:22:14;;;;;;;16.60;7.47;;;17.50;99.90;;;;;;5152572;27;20133;-76
2023/10/01 08:24:49;;;;;;;22.60;9.80;;;17.60;99.90;;;;;;5152775;27;20046;-75
2023/10/01 08:27:29;;;;;;;16.95;7.13;;;17.90;99.90;;;;;;5148565;27;20100;-82
2023/10/01 08:32:49;;;;;;;14.52;6.53;;;19.50;99.90;;;;;;5132422;27;20047;-78
2023/10/01 08:35:23;;;;;;;17.35;6.75;;;19.80;99.90;;;;;;5149322;27;20042;-77
2023/10/01 08:37:49;;;;;;;12.50;5.78;;;19.90;99.90;;;;;;5166726;27;20067;-79
2023/10/01 08:40:17;;;;;;;14.95;6.43;;;19.70;99.90;;;;;;5131912;27;20050;-75
2023/10/01 08:42:47;;;;;;;15.18;7.00;;;19.60;99.90;;;;;;5160035;27;20087;-76
2023/10/01 08:45:17;;;;;;;17.15;6.35;;;19.60;99.90;;;;;;5150928;27;20051;-78
2023/10/01 08:47:47;;;;;;;16.30;6.57;;;19.50;99.90;;;;;;5152545;27;20401;-79
2023/10/01 08:50:28;;;;;;;19.05;7.88;;;19.60;99.90;;;;;;5149065;27;20054;-73
2023/10/01 08:52:58;;;;;;;17.42;6.32;;;19.70;99.90;;;;;;5163561;27;20042;-76
2023/10/01 08:56:04;;;;;;;21.25;7.45;;;19.90;99.90;;;;;;5133586;27;20043;-74
2023/10/01 09:01:10;;;;;;;13.95;6.65;;;20.40;99.90;;;;;;5148327;27;20058;-77
2023/10/01 09:03:36;;;;;;;16.80;7.13;;;20.90;99.90;;;;;;5149835;27;20039;-75
2023/10/01 09:06:08;;;;;;;15.90;7.05;;;21.80;99.90;;;;;;5128890;27;20043;-74
2023/10/01 09:08:42;;;;;;;16.33;6.20;;;21.90;99.90;;;;;;5133441;27;20043;-75
2023/10/01 09:11:15;;;;;;;14.85;6.90;;;21.90;99.90;;;;;;5142752;27;20047;-75
2023/10/01 09:14:14;;;;;;;19.23;7.55;;;22.30;99.90;;;;;;5134719;27;20043;-77
2023/10/01 09:16:45;;;;;;;17.80;6.68;;;22.50;99.90;;;;;;5115161;28;20058;-75
2023/10/01 09:19:30;;;;;;;17.27;7.80;;;22.80;99.90;;;;;;5114014;28;20131;-75
2023/10/01 09:22:22;;;;;;;18.15;7.25;;;22.50;99.90;;;;;;5120797;27;20391;-74
2023/10/01 09:25:01;;;;;;;16.23;7.28;;;22.40;99.90;;;;;;5123822;27;20130;-72
2023/10/01 09:27:30;;;;;;;15.15;6.68;;;22.90;99.90;;;;;;5134782;27;20069;-74
2023/10/01 09:32:51;;;;;;;13.88;6.78;;;23.10;99.90;;;;;;5134006;27;20054;-73
2023/10/01 09:38:13;;;;;;;15.88;6.72;;;23.00;99.90;;;;;;5112335;27;20486;-74
2023/10/01 09:40:44;;;;;;;16.40;6.97;;;23.30;99.90;;;;;;5124289;27;20096;-73
2023/10/01 09:43:18;;;;;;;19.40;7.68;;;23.30;99.90;;;;;;5127902;27;20053;-73
2023/10/01 09:45:49;;;;;;;16.95;7.28;;;23.50;99.90;;;;;;5130609;27;20047;-73
2023/10/01 09:48:48;;;;;;;17.00;7.10;;;23.80;99.90;;;;;;5130716;27;20075;-73
2023/10/01 09:51:15;;;;;;;18.10;6.78;;;24.70;99.90;;;;;;5130963;27;20046;-74
2023/10/01 09:53:45;;;;;;;19.48;7.03;;;25.60;99.90;;;;;;5128400;27;20043;-73
2023/10/01 09:56:26;;;;;;;18.98;7.50;;;26.10;99.90;;;;;;5124736;27;20066;-79
2023/10/01 09:58:59;;;;;;;14.90;7.03;;;26.60;99.90;;;;;;5142705;27;20053;-75
2023/10/01 10:01:35;;;;;;;14.63;6.75;;;26.50;99.90;;;;;;5118582;27;20092;-74
2023/10/01 10:04:10;;;;;;;17.52;7.22;;;26.10;99.90;;;;;;5129879;27;20131;-76
2023/10/01 10:06:39;;;;;;;14.43;7.03;;;26.00;99.90;;;;;;5128220;27;20505;-75
2023/10/01 10:09:10;;;;;;;16.58;6.90;;;26.30;99.90;;;;;;5131515;27;20128;-75
2023/10/01 10:11:38;;;;;;;13.98;6.60;;;26.60;99.90;;;;;;5129844;27;20084;-75
2023/10/01 10:14:25;;;;;;;14.65;6.72;;;26.30;99.90;;;;;;5124025;27;20486;-80
2023/10/01 10:17:18;;;;;;;16.00;6.78;;;26.40;99.90;;;;;;5117549;27;20161;-73
2023/10/01 10:20:24;;;;;;;12.93;6.68;;;26.10;99.90;;;;;;5123098;27;20043;-72
2023/10/01 10:23:13;;;;;;;12.88;6.93;;;25.50;99.90;;;;;;5107808;27;20051;-76
2023/10/01 10:25:44;;;;;;;15.80;6.90;;;25.20;99.90;;;;;;5124239;27;20080;-73
2023/10/01 10:28:10;;;;;;;12.63;6.20;;;24.90;99.90;;;;;;5122207;27;20118;-74
2023/10/01 10:30:41;;;;;;;16.83;6.45;;;24.20;99.90;;;;;;5128993;27;20935;-73
2023/10/01 10:33:16;;;;;;;17.50;6.55;;;23.90;99.90;;;;;;5129250;27;20042;-74
2023/10/01 10:35:48;;;;;;;15.43;6.13;;;24.20;99.90;;;;;;5130856;27;20035;-76
2023/10/01 10:38:51;;;;;;;17.05;6.72;;;24.70;99.90;;;;;;5130503;27;20125;-73
2023/10/01 10:41:17;;;;;;;15.98;6.55;;;25.40;99.90;;;;;;5126870;27;20039;-73
2023/10/01 10:44:09;;;;;;;15.20;6.30;;;25.50;99.90;;;;;;5129473;27;20066;-74
2023/10/01 10:46:59;;;;;;;14.25;6.40;;;25.50;99.90;;;;;;5118565;27;20054;-73
2023/10/01 10:49:51;;;;;;;18.10;7.25;;;25.90;99.90;;;;;;5130709;27;20117;-76
2023/10/01 10:52:31;;;;;;;15.05;7.13;;;25.80;99.90;;;;;;5125618;27;20043;-77
2023/10/01 10:55:17;;;;;;;17.65;7.25;;;25.90;99.90;;;;;;5126661;27;20047;-77
2023/10/01 10:57:49;;;;;;;15.20;7.15;;;25.50;99.90;;;;;;5128000;27;20513;-73
2023/10/01 11:00:27;;;;;;;14.65;6.70;;;25.40;99.90;;;;;;5128052;27;20134;-76
2023/10/01 11:02:56;;;;;;;16.10;6.88;;;25.40;99.90;;;;;;5128060;27;20047;-75
2023/10/01 11:05:33;;;;;;;15.85;7.22;;;25.10;99.90;;;;;;5118276;27;20063;-74
2023/10/01 11:08:02;;;;;;;16.30;6.32;;;25.00;99.90;;;;;;5125961;27;20394;-72
2023/10/01 11:10:43;;;;;;;16.63;7.50;;;25.00;99.90;;;;;;5126887;27;20027;-75
2023/10/01 11:13:13;;;;;;;15.93;7.05;;;25.20;99.90;;;;;;5130032;27;20047;-74
2023/10/01 11:15:39;;;;;;;17.67;7.30;;;25.40;99.90;;;;;;5121232;27;20043;-74
2023/10/01 11:18:09;;;;;;;16.15;7.03;;;24.70;99.90;;;;;;5130744;27;20047;-72
2023/10/01 11:20:42;;;;;;;20.13;8.30;;;24.50;99.90;;;;;;5134120;27;20043;-74
2023/10/01 11:23:11;;;;;;;17.80;7.40;;;24.30;99.90;;;;;;5133018;27;20050;-71
2023/10/01 11:25:40;;;;;;;18.67;7.82;;;24.00;99.90;;;;;;5133415;27;20047;-76
2023/10/01 11:28:06;;;;;;;15.73;7.32;;;24.40;99.90;;;;;;5130225;27;20062;-75
2023/10/01 11:30:44;;;;;;;17.48;6.80;;;24.30;99.90;;;;;;5112107;27;20047;-76
2023/10/01 11:35:38;;;;;;;14.18;7.38;;;23.80;99.90;;;;;;5132157;27;20493;-73
2023/10/01 11:38:14;;;;;;;14.13;6.97;;;23.90;99.90;;;;;;5132608;27;20497;-74
2023/10/01 11:43:38;;;;;;;17.48;8.20;;;23.50;99.90;;;;;;5132821;27;20452;-74
2023/10/01 11:46:24;;;;;;;17.38;7.45;;;23.80;99.90;;;;;;5132173;27;20078;-73
2023/10/01 11:49:02;;;;;;;18.67;7.60;;;24.00;99.90;;;;;;5133455;27;20118;-74
2023/10/01 11:51:45;;;;;;;17.67;8.10;;;24.50;99.90;;;;;;5132476;27;20027;-74
2023/10/01 11:54:19;;;;;;;16.83;7.20;;;24.50;99.90;;;;;;5133119;27;20580;-77
2023/10/01 11:56:45;;;;;;;20.60;7.35;;;24.30;99.90;;;;;;5133113;27;20035;-74
2023/10/01 11:59:18;;;;;;;15.95;7.32;;;24.20;99.90;;;;;;5133151;27;20055;-73
2023/10/01 12:01:51;;;;;;;13.70;7.43;;;23.90;99.90;;;;;;5126872;27;20138;-74
2023/10/01 12:04:25;;;;;;;19.67;7.65;;;23.50;99.90;;;;;;5126628;27;20482;-74
2023/10/01 12:06:53;;;;;;;14.82;7.20;;;23.60;99.90;;;;;;5152697;27;20033;-75
2023/10/01 12:09:24;;;;;;;17.20;7.13;;;23.30;99.90;;;;;;5120217;27;20101;-73
2023/10/01 12:12:03;;;;;;;16.38;7.15;;;23.50;99.90;;;;;;5134244;27;20038;-74
2023/10/01 12:14:32;;;;;;;17.08;7.55;;;23.40;99.90;;;;;;5135267;27;20053;-77
2023/10/01 12:17:01;;;;;;;19.35;7.97;;;23.20;99.90;;;;;;5134056;27;20035;-73
2023/10/01 12:19:29;;;;;;;15.52;7.43;;;23.10;99.90;;;;;;5134810;27;20092;-75
2023/10/01 12:22:07;;;;;;;15.80;7.35;;;22.90;99.90;;;;;;5152913;27;20609;-77
2023/10/01 12:24:44;;;;;;;19.20;7.45;;;22.70;99.90;;;;;;5138607;27;20044;-72
2023/10/01 12:27:37;;;;;;;16.08;7.25;;;22.30;99.90;;;;;;5131517;27;20043;-74
2023/10/01 12:29:57;;;;;;;18.95;7.00;;;22.10;99.90;;;;;;5131594;27;20047;-74
2023/10/01 12:32:31;;;;;;;16.05;7.07;;;22.00;99.90;;;;;;5118589;27;20046;-77
2023/10/01 12:34:57;;;;;;;17.67;7.60;;;21.80;99.90;;;;;;5120342;28;20055;-75
2023/10/01 12:37:35;;;;;;;16.33;6.93;;;21.90;99.90;;;;;;5112289;28;20043;-75
2023/10/01 12:40:16;;;;;;;16.33;7.10;;;22.00;99.90;;;;;;5127895;27;20042;-75
2023/10/01 12:42:50;;;;;;;17.45;7.20;;;22.20;99.90;;;;;;5143183;27;20050;-75
2023/10/01 12:45:19;;;;;;;18.38;7.32;;;22.60;99.90;;;;;;5128232;27;20045;-75
2023/10/01 12:47:51;;;;;;;15.07;7.60;;;22.80;99.90;;;;;;5125116;27;20056;-80
2023/10/01 12:50:26;;;;;;;18.27;7.88;;;23.30;99.90;;;;;;5137174;27;20062;-78
2023/10/01 12:53:47;;;;;;;17.90;7.57;;;23.40;99.90;;;;;;5148451;27;20046;-77
2023/10/01 12:55:53;;;;;;;15.07;7.25;;;23.50;99.90;;;;;;5126147;27;20384;-79
2023/10/01 12:58:29;;;;;;;16.02;7.30;;;23.40;99.90;;;;;;5134094;27;20034;-75
2023/10/01 13:00:57;;;;;;;18.00;7.95;;;23.30;99.90;;;;;;5126262;27;20514;-77
2023/10/01 13:03:23;;;;;;;17.02;7.32;;;23.10;99.90;;;;;;5124952;27;20521;-75
2023/10/01 13:05:50;;;;;;;17.27;8.15;;;23.10;99.90;;;;;;5129386;27;20399;-74
2023/10/01 13:08:27;;;;;;;15.77;7.75;;;23.00;99.90;;;;;;5128715;27;20050;-81
2023/10/01 13:10:58;;;;;;;16.52;8.02;;;23.10;99.90;;;;;;5121276;27;20034;-76
2023/10/01 13:13:30;;;;;;;17.73;8.45;;;22.90;99.90;;;;;;5125106;27;20062;-75
2023/10/01 13:15:57;;;;;;;22.27;8.82;;;23.00;99.90;;;;;;5129929;27;20413;-78
2023/10/01 13:18:28;;;;;;;24.48;9.07;;;22.80;99.90;;;;;;5124290;27;20470;-77
2023/10/01 13:23:31;;;;;;;17.02;7.97;;;23.00;99.90;;;;;;5131972;27;20206;-76
2023/10/01 13:26:09;;;;;;;21.15;8.05;;;23.20;99.90;;;;;;5129125;27;20457;-77
2023/10/01 13:28:45;;;;;;;22.27;9.05;;;23.40;99.90;;;;;;5115432;27;20040;-74
2023/10/01 13:34:06;;;;;;;18.65;7.93;;;23.40;99.90;;;;;;5136415;27;20047;-77
2023/10/01 13:39:44;;;;;;;18.17;8.13;;;23.10;99.90;;;;;;5127826;27;20501;-75
2023/10/01 14:09:54;;;;;;;19.00;8.70;;;21.90;99.90;;;;;;5119635;27;20487;-79
2023/10/01 14:12:41;;;;;;;22.50;8.30;;;21.80;99.90;;;;;;5128740;27;20042;-79
2023/10/01 14:15:21;;;;;;;18.00;8.10;;;21.80;99.90;;;;;;5129400;27;20054;-75
2023/10/01 14:18:00;;;;;;;20.45;8.23;;;21.70;99.90;;;;;;5134375;27;20042;-78